sensor_id;sensor_type;location;lat;lon;timestamp;temperature;humidity
45906;DHT22;31619;49.008;12.106;2022-12-11T00:01:24;-0.50;99.90
45906;DHT22;31619;49.008;12.106;2022-12-11T00:03:50;-0.60;99.90
45906;DHT22;31619;49.008;12.106;2022-12-11T00:06:18;-0.60;99.90
45906;DHT22;31619;49.008;12.106;2022-12-11T00:08:44;-0.60;99.90
45906;DHT22;31619;49.008;12.106;2022-12-11T00:11:20;-0.60;99.90
45906;DHT22;31619;49.008;12.106;2022-12-11T00:13:45;-0.70;99.90
45906;DHT22;31619;49.008;12.106;2022-12-11T00:16:11;-0.70;99.90
45906;DHT22;31619;49.008;12.106;2022-12-11T00:18:37;-0.70;99.90
45906;DHT22;31619;49.008;12.106;2022-12-11T00:21:05;-0.70;99.90
45906;DHT22;31619;49.008;12.106;2022-12-11T00:23:31;-0.60;99.90
45906;DHT22;31619;49.008;12.106;2022-12-11T00:25:56;-0.60;99.90
45906;DHT22;31619;49.008;12.106;2022-12-11T00:28:22;-0.60;99.90
45906;DHT22;31619;49.008;12.106;2022-12-11T00:30:48;-0.60;99.90
45906;DHT22;31619;49.008;12.106;2022-12-11T00:33:14;-0.60;99.90
45906;DHT22;31619;49.008;12.106;2022-12-11T00:35:41;-0.70;99.90
45906;DHT22;31619;49.008;12.106;2022-12-11T00:38:08;-0.70;99.90
45906;DHT22;31619;49.008;12.106;2022-12-11T00:40:38;-0.70;99.90
45906;DHT22;31619;49.008;12.106;2022-12-11T00:43:03;-0.70;99.90
45906;DHT22;31619;49.008;12.106;2022-12-11T00:45:29;-0.60;99.90
45906;DHT22;31619;49.008;12.106;2022-12-11T00:47:55;-0.60;99.90
45906;DHT22;31619;49.008;12.106;2022-12-11T00:50:20;-0.60;99.90
45906;DHT22;31619;49.008;12.106;2022-12-11T00:52:46;-0.60;99.90
45906;DHT22;31619;49.008;12.106;2022-12-11T00:55:11;-0.50;99.90
45906;DHT22;31619;49.008;12.106;2022-12-11T00:57:38;-0.50;99.90
45906;DHT22;31619;49.008;12.106;2022-12-11T01:00:04;-0.50;99.90
45906;DHT22;31619;49.008;12.106;2022-12-11T01:02:33;-0.40;99.90
45906;DHT22;31619;49.008;12.106;2022-12-11T01:04:59;-0.40;99.90
45906;DHT22;31619;49.008;12.106;2022-12-11T01:07:25;-0.40;99.90
45906;DHT22;31619;49.008;12.106;2022-12-11T01:09:50;-0.40;99.90
45906;DHT22;31619;49.008;12.106;2022-12-11T01:12:35;-0.40;99.90
45906;DHT22;31619;49.008;12.106;2022-12-11T01:15:00;-0.40;99.90
45906;DHT22;31619;49.008;12.106;2022-12-11T01:17:26;-0.40;99.90
45906;DHT22;31619;49.008;12.106;2022-12-11T01:19:54;-0.40;99.90
45906;DHT22;31619;49.008;12.106;2022-12-11T01:22:20;-0.40;99.90
45906;DHT22;31619;49.008;12.106;2022-12-11T01:24:46;-0.40;99.90
45906;DHT22;31619;49.008;12.106;2022-12-11T01:27:11;-0.40;99.90
45906;DHT22;31619;49.008;12.106;2022-12-11T01:29:37;-0.40;99.90
45906;DHT22;31619;49.008;12.106;2022-12-11T01:32:03;-0.40;99.90
45906;DHT22;31619;49.008;12.106;2022-12-11T01:34:29;-0.40;99.90
45906;DHT22;31619;49.008;12.106;2022-12-11T01:36:55;-0.40;99.90
45906;DHT22;31619;49.008;12.106;2022-12-11T01:39:21;-0.50;99.90
45906;DHT22;31619;49.008;12.106;2022-12-11T01:41:46;-0.50;99.90
45906;DHT22;31619;49.008;12.106;2022-12-11T01:46:41;-0.50;99.90
45906;DHT22;31619;49.008;12.106;2022-12-11T01:49:10;-0.40;99.90
45906;DHT22;31619;49.008;12.106;2022-12-11T01:51:43;-0.50;99.90
45906;DHT22;31619;49.008;12.106;2022-12-11T01:54:14;-0.40;99.90
45906;DHT22;31619;49.008;12.106;2022-12-11T01:56:42;-0.50;99.90
45906;DHT22;31619;49.008;12.106;2022-12-11T01:59:09;-0.50;99.90
45906;DHT22;31619;49.008;12.106;2022-12-11T02:01:48;-0.60;99.90
45906;DHT22;31619;49.008;12.106;2022-12-11T02:04:16;-0.50;99.90
45906;DHT22;31619;49.008;12.106;2022-12-11T02:06:46;-0.60;99.90
45906;DHT22;31619;49.008;12.106;2022-12-11T02:09:15;-0.60;99.90
45906;DHT22;31619;49.008;12.106;2022-12-11T02:12:01;-0.70;99.90
45906;DHT22;31619;49.008;12.106;2022-12-11T02:17:31;-0.60;99.90
45906;DHT22;31619;49.008;12.106;2022-12-11T02:20:21;-0.60;99.90
45906;DHT22;31619;49.008;12.106;2022-12-11T02:28:17;-0.40;99.90
45906;DHT22;31619;49.008;12.106;2022-12-11T02:30:47;-0.40;99.90
45906;DHT22;31619;49.008;12.106;2022-12-11T02:33:15;-0.50;99.90
45906;DHT22;31619;49.008;12.106;2022-12-11T02:35:45;-0.60;99.90
45906;DHT22;31619;49.008;12.106;2022-12-11T02:38:23;-0.70;99.90
45906;DHT22;31619;49.008;12.106;2022-12-11T02:40:50;-0.70;99.90
45906;DHT22;31619;49.008;12.106;2022-12-11T02:43:18;-0.80;99.90
45906;DHT22;31619;49.008;12.106;2022-12-11T02:45:45;-0.80;99.90
45906;DHT22;31619;49.008;12.106;2022-12-11T02:48:12;-1.00;99.90
45906;DHT22;31619;49.008;12.106;2022-12-11T02:50:41;-1.10;99.90
45906;DHT22;31619;49.008;12.106;2022-12-11T02:53:10;-1.10;99.90
45906;DHT22;31619;49.008;12.106;2022-12-11T02:55:37;-1.20;99.90
45906;DHT22;31619;49.008;12.106;2022-12-11T02:58:07;-1.40;99.90
45906;DHT22;31619;49.008;12.106;2022-12-11T03:00:36;-1.40;99.90
45906;DHT22;31619;49.008;12.106;2022-12-11T03:03:02;-1.40;99.90
45906;DHT22;31619;49.008;12.106;2022-12-11T03:05:28;-1.50;99.90
45906;DHT22;31619;49.008;12.106;2022-12-11T03:07:54;-1.60;99.90
45906;DHT22;31619;49.008;12.106;2022-12-11T03:10:21;-1.60;99.90
45906;DHT22;31619;49.008;12.106;2022-12-11T03:12:49;-1.60;99.90
45906;DHT22;31619;49.008;12.106;2022-12-11T03:15:20;-1.70;99.90
45906;DHT22;31619;49.008;12.106;2022-12-11T03:20:30;-1.70;99.90
45906;DHT22;31619;49.008;12.106;2022-12-11T03:23:21;-1.70;99.90
45906;DHT22;31619;49.008;12.106;2022-12-11T03:25:56;-1.60;99.90
45906;DHT22;31619;49.008;12.106;2022-12-11T03:28:25;-1.60;99.90
45906;DHT22;31619;49.008;12.106;2022-12-11T03:30:53;-1.60;99.90
45906;DHT22;31619;49.008;12.106;2022-12-11T03:33:36;-1.70;99.90
45906;DHT22;31619;49.008;12.106;2022-12-11T03:36:08;-1.80;99.90
45906;DHT22;31619;49.008;12.106;2022-12-11T03:38:46;-1.80;99.90
45906;DHT22;31619;49.008;12.106;2022-12-11T03:41:15;-1.90;99.90
45906;DHT22;31619;49.008;12.106;2022-12-11T03:43:41;-1.90;99.90
45906;DHT22;31619;49.008;12.106;2022-12-11T03:46:09;-2.00;99.90
45906;DHT22;31619;49.008;12.106;2022-12-11T03:48:39;-2.10;99.90
45906;DHT22;31619;49.008;12.106;2022-12-11T03:51:07;-2.20;99.90
45906;DHT22;31619;49.008;12.106;2022-12-11T03:53:36;-2.30;99.90
45906;DHT22;31619;49.008;12.106;2022-12-11T03:56:04;-2.30;99.90
45906;DHT22;31619;49.008;12.106;2022-12-11T03:58:31;-2.30;99.90
45906;DHT22;31619;49.008;12.106;2022-12-11T04:00:56;-2.30;99.90
45906;DHT22;31619;49.008;12.106;2022-12-11T04:03:22;-2.30;99.90
45906;DHT22;31619;49.008;12.106;2022-12-11T04:05:50;-2.30;99.90
45906;DHT22;31619;49.008;12.106;2022-12-11T04:08:18;-2.40;99.90
45906;DHT22;31619;49.008;12.106;2022-12-11T04:10:45;-2.40;99.90
45906;DHT22;31619;49.008;12.106;2022-12-11T04:13:11;-2.40;99.90
45906;DHT22;31619;49.008;12.106;2022-12-11T04:15:38;-2.40;99.90
45906;DHT22;31619;49.008;12.106;2022-12-11T04:18:04;-2.40;99.90
45906;DHT22;31619;49.008;12.106;2022-12-11T04:20:52;-2.40;99.90
45906;DHT22;31619;49.008;12.106;2022-12-11T04:23:36;-2.40;99.90
45906;DHT22;31619;49.008;12.106;2022-12-11T04:26:20;-2.40;99.90
45906;DHT22;31619;49.008;12.106;2022-12-11T04:28:47;-2.50;99.90
45906;DHT22;31619;49.008;12.106;2022-12-11T04:31:16;-2.50;99.90
45906;DHT22;31619;49.008;12.106;2022-12-11T04:33:42;-2.50;99.90
45906;DHT22;31619;49.008;12.106;2022-12-11T04:36:08;-2.50;99.90
45906;DHT22;31619;49.008;12.106;2022-12-11T04:38:34;-2.50;99.90
45906;DHT22;31619;49.008;12.106;2022-12-11T04:41:05;-2.60;99.90
45906;DHT22;31619;49.008;12.106;2022-12-11T04:43:31;-2.60;99.90
45906;DHT22;31619;49.008;12.106;2022-12-11T04:46:09;-2.60;99.90
45906;DHT22;31619;49.008;12.106;2022-12-11T04:48:35;-2.60;99.90
45906;DHT22;31619;49.008;12.106;2022-12-11T04:51:00;-2.60;99.90
45906;DHT22;31619;49.008;12.106;2022-12-11T04:53:27;-2.40;99.90
45906;DHT22;31619;49.008;12.106;2022-12-11T04:55:52;-2.30;99.90
45906;DHT22;31619;49.008;12.106;2022-12-11T04:58:18;-2.20;99.90
45906;DHT22;31619;49.008;12.106;2022-12-11T05:00:44;-2.20;99.90
45906;DHT22;31619;49.008;12.106;2022-12-11T05:03:10;-2.30;99.90
45906;DHT22;31619;49.008;12.106;2022-12-11T05:05:36;-2.20;99.90
45906;DHT22;31619;49.008;12.106;2022-12-11T05:08:01;-2.20;99.90
45906;DHT22;31619;49.008;12.106;2022-12-11T05:10:27;-2.20;99.90
45906;DHT22;31619;49.008;12.106;2022-12-11T05:12:52;-2.10;99.90
45906;DHT22;31619;49.008;12.106;2022-12-11T05:15:18;-2.10;99.90
45906;DHT22;31619;49.008;12.106;2022-12-11T05:17:43;-2.20;99.90
45906;DHT22;31619;49.008;12.106;2022-12-11T05:20:09;-2.30;99.90
45906;DHT22;31619;49.008;12.106;2022-12-11T05:22:36;-2.30;99.90
45906;DHT22;31619;49.008;12.106;2022-12-11T05:25:02;-2.20;99.90
45906;DHT22;31619;49.008;12.106;2022-12-11T05:27:28;-2.20;99.90
45906;DHT22;31619;49.008;12.106;2022-12-11T05:29:53;-2.10;99.90
45906;DHT22;31619;49.008;12.106;2022-12-11T05:32:19;-2.20;99.90
45906;DHT22;31619;49.008;12.106;2022-12-11T05:34:45;-2.20;99.90
45906;DHT22;31619;49.008;12.106;2022-12-11T05:37:10;-2.20;99.90
45906;DHT22;31619;49.008;12.106;2022-12-11T05:39:36;-2.20;99.90
45906;DHT22;31619;49.008;12.106;2022-12-11T05:42:03;-2.20;99.90
45906;DHT22;31619;49.008;12.106;2022-12-11T05:44:28;-2.30;99.90
45906;DHT22;31619;49.008;12.106;2022-12-11T05:46:54;-2.20;99.90
45906;DHT22;31619;49.008;12.106;2022-12-11T05:49:20;-2.20;99.90
45906;DHT22;31619;49.008;12.106;2022-12-11T05:51:46;-2.20;99.90
45906;DHT22;31619;49.008;12.106;2022-12-11T05:54:12;-2.30;99.90
45906;DHT22;31619;49.008;12.106;2022-12-11T05:56:38;-2.40;99.90
45906;DHT22;31619;49.008;12.106;2022-12-11T05:59:04;-2.40;99.90
45906;DHT22;31619;49.008;12.106;2022-12-11T06:01:37;-2.40;99.90
45906;DHT22;31619;49.008;12.106;2022-12-11T06:04:03;-2.50;99.90
45906;DHT22;31619;49.008;12.106;2022-12-11T06:06:30;-2.50;99.90
45906;DHT22;31619;49.008;12.106;2022-12-11T06:08:57;-2.50;99.90
45906;DHT22;31619;49.008;12.106;2022-12-11T06:11:24;-2.50;99.90
45906;DHT22;31619;49.008;12.106;2022-12-11T06:13:51;-2.40;99.90
45906;DHT22;31619;49.008;12.106;2022-12-11T06:16:17;-2.40;99.90
45906;DHT22;31619;49.008;12.106;2022-12-11T06:18:44;-2.40;99.90
45906;DHT22;31619;49.008;12.106;2022-12-11T06:21:21;-2.40;99.90
45906;DHT22;31619;49.008;12.106;2022-12-11T06:23:49;-2.40;99.90
45906;DHT22;31619;49.008;12.106;2022-12-11T06:26:15;-2.40;99.90
45906;DHT22;31619;49.008;12.106;2022-12-11T06:28:41;-2.40;99.90
45906;DHT22;31619;49.008;12.106;2022-12-11T06:31:07;-2.60;99.90
45906;DHT22;31619;49.008;12.106;2022-12-11T06:33:33;-2.50;99.90
45906;DHT22;31619;49.008;12.106;2022-12-11T06:36:07;-2.60;99.90
45906;DHT22;31619;49.008;12.106;2022-12-11T06:38:33;-2.60;99.90
45906;DHT22;31619;49.008;12.106;2022-12-11T06:41:01;-2.80;99.90
45906;DHT22;31619;49.008;12.106;2022-12-11T06:43:29;-2.80;99.90
45906;DHT22;31619;49.008;12.106;2022-12-11T06:45:55;-2.80;99.90
45906;DHT22;31619;49.008;12.106;2022-12-11T06:48:20;-2.80;99.90
45906;DHT22;31619;49.008;12.106;2022-12-11T06:50:46;-2.90;99.90
45906;DHT22;31619;49.008;12.106;2022-12-11T06:53:12;-2.90;99.90
45906;DHT22;31619;49.008;12.106;2022-12-11T06:55:39;-2.90;99.90
45906;DHT22;31619;49.008;12.106;2022-12-11T06:58:06;-2.80;99.90
45906;DHT22;31619;49.008;12.106;2022-12-11T07:00:34;-2.90;99.90
45906;DHT22;31619;49.008;12.106;2022-12-11T07:03:00;-2.80;99.90
45906;DHT22;31619;49.008;12.106;2022-12-11T07:05:26;-2.90;99.90
45906;DHT22;31619;49.008;12.106;2022-12-11T07:07:53;-2.90;99.90
45906;DHT22;31619;49.008;12.106;2022-12-11T07:10:19;-2.80;99.90
45906;DHT22;31619;49.008;12.106;2022-12-11T07:12:45;-2.80;99.90
45906;DHT22;31619;49.008;12.106;2022-12-11T07:15:10;-2.80;99.90
45906;DHT22;31619;49.008;12.106;2022-12-11T07:17:36;-2.80;99.90
45906;DHT22;31619;49.008;12.106;2022-12-11T07:20:02;-2.70;99.90
45906;DHT22;31619;49.008;12.106;2022-12-11T07:22:28;-2.70;99.90
45906;DHT22;31619;49.008;12.106;2022-12-11T07:24:54;-2.70;99.90
45906;DHT22;31619;49.008;12.106;2022-12-11T07:27:19;-2.60;99.90
45906;DHT22;31619;49.008;12.106;2022-12-11T07:29:45;-2.70;99.90
45906;DHT22;31619;49.008;12.106;2022-12-11T07:32:11;-2.60;99.90
45906;DHT22;31619;49.008;12.106;2022-12-11T07:34:36;-2.60;99.90
45906;DHT22;31619;49.008;12.106;2022-12-11T07:37:02;-2.50;99.90
45906;DHT22;31619;49.008;12.106;2022-12-11T07:39:28;-2.60;99.90
45906;DHT22;31619;49.008;12.106;2022-12-11T07:41:53;-2.50;99.90
45906;DHT22;31619;49.008;12.106;2022-12-11T07:44:19;-2.50;99.90
45906;DHT22;31619;49.008;12.106;2022-12-11T07:46:45;-2.40;99.90
45906;DHT22;31619;49.008;12.106;2022-12-11T07:49:17;-2.30;99.90
45906;DHT22;31619;49.008;12.106;2022-12-11T07:51:43;-2.30;99.90
45906;DHT22;31619;49.008;12.106;2022-12-11T07:54:13;-2.20;99.90
45906;DHT22;31619;49.008;12.106;2022-12-11T07:56:42;-2.00;99.90
45906;DHT22;31619;49.008;12.106;2022-12-11T07:59:08;-2.00;99.90
45906;DHT22;31619;49.008;12.106;2022-12-11T08:01:35;-1.80;99.90
45906;DHT22;31619;49.008;12.106;2022-12-11T08:04:03;-1.70;99.90
45906;DHT22;31619;49.008;12.106;2022-12-11T08:06:34;-1.80;99.90
45906;DHT22;31619;49.008;12.106;2022-12-11T08:09:03;-1.70;99.90
45906;DHT22;31619;49.008;12.106;2022-12-11T08:11:29;-1.70;99.90
45906;DHT22;31619;49.008;12.106;2022-12-11T08:13:54;-1.60;99.90
45906;DHT22;31619;49.008;12.106;2022-12-11T08:16:24;-1.50;99.90
45906;DHT22;31619;49.008;12.106;2022-12-11T08:18:53;-1.40;99.90
45906;DHT22;31619;49.008;12.106;2022-12-11T08:21:21;-1.30;99.90
45906;DHT22;31619;49.008;12.106;2022-12-11T08:23:47;-1.30;99.90
45906;DHT22;31619;49.008;12.106;2022-12-11T08:26:15;-1.20;99.90
45906;DHT22;31619;49.008;12.106;2022-12-11T08:28:42;-1.10;99.90
45906;DHT22;31619;49.008;12.106;2022-12-11T08:31:10;-1.00;99.90
45906;DHT22;31619;49.008;12.106;2022-12-11T08:33:37;-0.80;99.90
45906;DHT22;31619;49.008;12.106;2022-12-11T08:36:07;-0.60;99.90
45906;DHT22;31619;49.008;12.106;2022-12-11T08:38:33;-0.50;99.90
45906;DHT22;31619;49.008;12.106;2022-12-11T08:41:07;-0.50;99.90
45906;DHT22;31619;49.008;12.106;2022-12-11T08:43:33;-0.40;99.90
45906;DHT22;31619;49.008;12.106;2022-12-11T08:45:59;-0.40;99.90
45906;DHT22;31619;49.008;12.106;2022-12-11T08:48:24;-0.30;99.90
45906;DHT22;31619;49.008;12.106;2022-12-11T08:50:50;-0.20;99.90
45906;DHT22;31619;49.008;12.106;2022-12-11T08:53:15;-0.20;99.90
45906;DHT22;31619;49.008;12.106;2022-12-11T08:55:41;-0.10;99.90
45906;DHT22;31619;49.008;12.106;2022-12-11T08:58:06;0.20;99.90
45906;DHT22;31619;49.008;12.106;2022-12-11T09:00:32;0.40;99.90
45906;DHT22;31619;49.008;12.106;2022-12-11T09:02:57;0.40;99.90
45906;DHT22;31619;49.008;12.106;2022-12-11T09:05:23;0.60;99.90
45906;DHT22;31619;49.008;12.106;2022-12-11T09:07:49;0.90;99.90
45906;DHT22;31619;49.008;12.106;2022-12-11T09:10:14;1.20;99.90
45906;DHT22;31619;49.008;12.106;2022-12-11T09:12:40;1.60;99.90
45906;DHT22;31619;49.008;12.106;2022-12-11T09:15:06;1.90;99.90
45906;DHT22;31619;49.008;12.106;2022-12-11T09:17:33;1.80;99.90
45906;DHT22;31619;49.008;12.106;2022-12-11T09:19:59;1.90;99.90
45906;DHT22;31619;49.008;12.106;2022-12-11T09:22:24;1.70;99.90
45906;DHT22;31619;49.008;12.106;2022-12-11T09:24:50;1.90;99.90
45906;DHT22;31619;49.008;12.106;2022-12-11T09:27:15;2.00;99.90
45906;DHT22;31619;49.008;12.106;2022-12-11T09:29:41;2.30;99.90
45906;DHT22;31619;49.008;12.106;2022-12-11T09:32:07;2.50;99.90
45906;DHT22;31619;49.008;12.106;2022-12-11T09:34:32;2.50;99.90
45906;DHT22;31619;49.008;12.106;2022-12-11T09:36:58;2.40;99.90
45906;DHT22;31619;49.008;12.106;2022-12-11T09:39:23;2.30;99.90
45906;DHT22;31619;49.008;12.106;2022-12-11T09:42:24;2.30;99.90
45906;DHT22;31619;49.008;12.106;2022-12-11T09:44:57;2.10;99.90
45906;DHT22;31619;49.008;12.106;2022-12-11T09:47:58;2.00;99.90
45906;DHT22;31619;49.008;12.106;2022-12-11T09:50:21;1.90;99.90
45906;DHT22;31619;49.008;12.106;2022-12-11T09:53:16;1.80;99.90
45906;DHT22;31619;49.008;12.106;2022-12-11T09:56:02;1.80;99.90
45906;DHT22;31619;49.008;12.106;2022-12-11T10:01:16;1.80;99.90
45906;DHT22;31619;49.008;12.106;2022-12-11T10:04:02;1.90;99.90
45906;DHT22;31619;49.008;12.106;2022-12-11T10:06:46;2.00;99.90
45906;DHT22;31619;49.008;12.106;2022-12-11T10:09:16;2.00;99.90
45906;DHT22;31619;49.008;12.106;2022-12-11T10:14:34;1.80;99.90
45906;DHT22;31619;49.008;12.106;2022-12-11T10:17:10;1.70;99.90
45906;DHT22;31619;49.008;12.106;2022-12-11T10:19:37;1.90;99.90
45906;DHT22;31619;49.008;12.106;2022-12-11T10:22:07;1.90;99.90
45906;DHT22;31619;49.008;12.106;2022-12-11T10:24:41;2.00;99.90
45906;DHT22;31619;49.008;12.106;2022-12-11T10:27:17;1.90;99.90
45906;DHT22;31619;49.008;12.106;2022-12-11T10:29:45;2.00;99.90
45906;DHT22;31619;49.008;12.106;2022-12-11T10:32:21;2.30;99.90
45906;DHT22;31619;49.008;12.106;2022-12-11T10:34:52;2.90;99.90
45906;DHT22;31619;49.008;12.106;2022-12-11T10:37:19;3.50;99.90
45906;DHT22;31619;49.008;12.106;2022-12-11T10:39:45;4.10;99.90
45906;DHT22;31619;49.008;12.106;2022-12-11T10:42:18;4.50;99.90
45906;DHT22;31619;49.008;12.106;2022-12-11T10:45:04;4.60;99.90
45906;DHT22;31619;49.008;12.106;2022-12-11T10:47:30;4.90;99.90
45906;DHT22;31619;49.008;12.106;2022-12-11T10:50:00;5.60;99.90
45906;DHT22;31619;49.008;12.106;2022-12-11T10:52:36;6.30;99.90
45906;DHT22;31619;49.008;12.106;2022-12-11T10:55:16;6.70;99.90
45906;DHT22;31619;49.008;12.106;2022-12-11T10:57:43;6.90;99.90
45906;DHT22;31619;49.008;12.106;2022-12-11T11:00:35;7.10;99.90
45906;DHT22;31619;49.008;12.106;2022-12-11T11:03:03;6.70;99.90
45906;DHT22;31619;49.008;12.106;2022-12-11T11:05:36;6.60;99.90
45906;DHT22;31619;49.008;12.106;2022-12-11T11:08:17;6.30;99.90
45906;DHT22;31619;49.008;12.106;2022-12-11T11:10:53;6.00;99.90
45906;DHT22;31619;49.008;12.106;2022-12-11T11:13:21;5.80;99.90
45906;DHT22;31619;49.008;12.106;2022-12-11T11:15:47;6.00;99.90
45906;DHT22;31619;49.008;12.106;2022-12-11T11:18:24;5.70;99.90
45906;DHT22;31619;49.008;12.106;2022-12-11T11:20:51;5.40;99.90
45906;DHT22;31619;49.008;12.106;2022-12-11T11:23:18;4.70;99.90
45906;DHT22;31619;49.008;12.106;2022-12-11T11:25:54;4.00;99.90
45906;DHT22;31619;49.008;12.106;2022-12-11T11:28:29;3.60;99.90
45906;DHT22;31619;49.008;12.106;2022-12-11T11:31:10;3.10;99.90
45906;DHT22;31619;49.008;12.106;2022-12-11T11:33:43;2.60;99.90
45906;DHT22;31619;49.008;12.106;2022-12-11T11:36:19;2.10;99.90
45906;DHT22;31619;49.008;12.106;2022-12-11T11:38:52;2.10;99.90
45906;DHT22;31619;49.008;12.106;2022-12-11T11:41:24;2.10;99.90
45906;DHT22;31619;49.008;12.106;2022-12-11T11:43:57;2.20;99.90
45906;DHT22;31619;49.008;12.106;2022-12-11T11:46:37;2.10;99.90
45906;DHT22;31619;49.008;12.106;2022-12-11T11:51:49;1.80;99.90
45906;DHT22;31619;49.008;12.106;2022-12-11T11:54:37;1.60;99.90
45906;DHT22;31619;49.008;12.106;2022-12-11T11:57:17;1.30;99.90
45906;DHT22;31619;49.008;12.106;2022-12-11T11:59:51;1.20;99.90
45906;DHT22;31619;49.008;12.106;2022-12-11T12:02:19;1.20;99.90
45906;DHT22;31619;49.008;12.106;2022-12-11T12:04:45;1.30;99.90
45906;DHT22;31619;49.008;12.106;2022-12-11T12:07:36;1.40;99.90
45906;DHT22;31619;49.008;12.106;2022-12-11T12:13:43;1.30;99.90
45906;DHT22;31619;49.008;12.106;2022-12-11T12:15:56;1.40;99.90
45906;DHT22;31619;49.008;12.106;2022-12-11T12:21:23;2.60;99.90
45906;DHT22;31619;49.008;12.106;2022-12-11T12:24:41;3.20;99.90
45906;DHT22;31619;49.008;12.106;2022-12-11T12:30:10;4.30;99.90
45906;DHT22;31619;49.008;12.106;2022-12-11T12:35:36;5.40;96.80
45906;DHT22;31619;49.008;12.106;2022-12-11T12:38:09;6.00;95.80
45906;DHT22;31619;49.008;12.106;2022-12-11T12:40:51;6.70;93.70
45906;DHT22;31619;49.008;12.106;2022-12-11T12:43:28;7.30;91.80
45906;DHT22;31619;49.008;12.106;2022-12-11T12:48:21;7.30;86.70
45906;DHT22;31619;49.008;12.106;2022-12-11T12:50:50;6.80;88.80
45906;DHT22;31619;49.008;12.106;2022-12-11T12:53:19;6.00;90.10
45906;DHT22;31619;49.008;12.106;2022-12-11T12:55:47;5.40;90.10
45906;DHT22;31619;49.008;12.106;2022-12-11T13:01:18;4.60;92.80
45906;DHT22;31619;49.008;12.106;2022-12-11T13:04:04;4.20;93.50
45906;DHT22;31619;49.008;12.106;2022-12-11T13:06:42;4.00;91.80
45906;DHT22;31619;49.008;12.106;2022-12-11T13:11:43;3.30;93.40
45906;DHT22;31619;49.008;12.106;2022-12-11T13:16:43;3.70;93.30
45906;DHT22;31619;49.008;12.106;2022-12-11T13:21:57;3.40;93.60
45906;DHT22;31619;49.008;12.106;2022-12-11T13:24:26;3.10;93.80
45906;DHT22;31619;49.008;12.106;2022-12-11T13:26:52;2.80;94.70
45906;DHT22;31619;49.008;12.106;2022-12-11T13:29:47;2.40;95.80
45906;DHT22;31619;49.008;12.106;2022-12-11T13:34:40;2.00;97.50
45906;DHT22;31619;49.008;12.106;2022-12-11T13:37:23;1.90;98.40
45906;DHT22;31619;49.008;12.106;2022-12-11T13:39:50;1.80;98.60
45906;DHT22;31619;49.008;12.106;2022-12-11T13:42:25;1.70;99.30
45906;DHT22;31619;49.008;12.106;2022-12-11T13:44:52;1.80;99.90
45906;DHT22;31619;49.008;12.106;2022-12-11T13:47:18;2.10;99.40
45906;DHT22;31619;49.008;12.106;2022-12-11T13:49:48;2.40;99.30
45906;DHT22;31619;49.008;12.106;2022-12-11T13:52:20;2.70;99.10
45906;DHT22;31619;49.008;12.106;2022-12-11T13:54:48;2.90;98.80
45906;DHT22;31619;49.008;12.106;2022-12-11T13:57:17;3.00;98.70
45906;DHT22;31619;49.008;12.106;2022-12-11T13:59:53;2.80;98.50
45906;DHT22;31619;49.008;12.106;2022-12-11T14:02:24;2.70;99.00
45906;DHT22;31619;49.008;12.106;2022-12-11T14:04:58;2.40;99.40
45906;DHT22;31619;49.008;12.106;2022-12-11T14:07:33;2.30;99.90
45906;DHT22;31619;49.008;12.106;2022-12-11T14:10:13;2.20;99.90
45906;DHT22;31619;49.008;12.106;2022-12-11T14:15:24;1.70;99.90
45906;DHT22;31619;49.008;12.106;2022-12-11T14:17:50;1.60;99.90
45906;DHT22;31619;49.008;12.106;2022-12-11T14:20:19;1.20;99.90
45906;DHT22;31619;49.008;12.106;2022-12-11T14:22:46;1.00;99.90
45906;DHT22;31619;49.008;12.106;2022-12-11T14:25:22;0.80;99.90
45906;DHT22;31619;49.008;12.106;2022-12-11T14:27:54;0.70;99.90
45906;DHT22;31619;49.008;12.106;2022-12-11T14:30:26;0.70;99.90
45906;DHT22;31619;49.008;12.106;2022-12-11T14:33:03;0.60;99.90
45906;DHT22;31619;49.008;12.106;2022-12-11T14:35:36;0.60;99.90
45906;DHT22;31619;49.008;12.106;2022-12-11T14:38:09;0.60;99.90
45906;DHT22;31619;49.008;12.106;2022-12-11T14:40:40;0.70;99.90
45906;DHT22;31619;49.008;12.106;2022-12-11T14:43:18;0.50;99.90
45906;DHT22;31619;49.008;12.106;2022-12-11T14:45:47;0.30;99.90
45906;DHT22;31619;49.008;12.106;2022-12-11T14:48:21;0.30;99.90
45906;DHT22;31619;49.008;12.106;2022-12-11T14:50:50;0.20;99.90
45906;DHT22;31619;49.008;12.106;2022-12-11T14:53:25;0.30;99.90
45906;DHT22;31619;49.008;12.106;2022-12-11T14:56:03;0.30;99.90
45906;DHT22;31619;49.008;12.106;2022-12-11T14:58:30;0.30;99.90
45906;DHT22;31619;49.008;12.106;2022-12-11T15:01:19;0.30;99.90
45906;DHT22;31619;49.008;12.106;2022-12-11T15:03:45;0.20;99.90
45906;DHT22;31619;49.008;12.106;2022-12-11T15:06:47;0.00;99.90
45906;DHT22;31619;49.008;12.106;2022-12-11T15:09:36;-0.20;99.90
45906;DHT22;31619;49.008;12.106;2022-12-11T15:12:11;-0.30;99.90
45906;DHT22;31619;49.008;12.106;2022-12-11T15:15:14;-0.30;99.90
45906;DHT22;31619;49.008;12.106;2022-12-11T15:17:39;-0.30;99.90
45906;DHT22;31619;49.008;12.106;2022-12-11T15:20:07;-0.10;99.90
45906;DHT22;31619;49.008;12.106;2022-12-11T15:22:34;-0.20;99.90
45906;DHT22;31619;49.008;12.106;2022-12-11T15:25:00;-0.20;99.90
45906;DHT22;31619;49.008;12.106;2022-12-11T15:27:36;-0.30;99.90
45906;DHT22;31619;49.008;12.106;2022-12-11T15:33:20;-0.60;99.90
45906;DHT22;31619;49.008;12.106;2022-12-11T15:36:03;-0.70;99.90
45906;DHT22;31619;49.008;12.106;2022-12-11T15:40:57;-0.70;99.90
45906;DHT22;31619;49.008;12.106;2022-12-11T15:43:23;-0.80;99.90
45906;DHT22;31619;49.008;12.106;2022-12-11T15:45:49;-0.80;99.90
45906;DHT22;31619;49.008;12.106;2022-12-11T15:48:15;-0.80;99.90
45906;DHT22;31619;49.008;12.106;2022-12-11T15:50:41;-0.70;99.90
45906;DHT22;31619;49.008;12.106;2022-12-11T15:53:07;-0.70;99.90
45906;DHT22;31619;49.008;12.106;2022-12-11T15:55:33;-0.80;99.90
45906;DHT22;31619;49.008;12.106;2022-12-11T15:58:04;-0.80;99.90
45906;DHT22;31619;49.008;12.106;2022-12-11T16:00:31;-0.80;99.90
45906;DHT22;31619;49.008;12.106;2022-12-11T16:02:57;-0.90;99.90
45906;DHT22;31619;49.008;12.106;2022-12-11T16:05:24;-0.80;99.90
45906;DHT22;31619;49.008;12.106;2022-12-11T16:07:50;-0.70;99.90
45906;DHT22;31619;49.008;12.106;2022-12-11T16:10:23;-0.60;99.90
45906;DHT22;31619;49.008;12.106;2022-12-11T16:12:49;-0.60;99.90
45906;DHT22;31619;49.008;12.106;2022-12-11T16:15:15;-0.60;99.90
45906;DHT22;31619;49.008;12.106;2022-12-11T16:17:41;-0.80;99.90
45906;DHT22;31619;49.008;12.106;2022-12-11T16:20:08;-0.70;99.90
45906;DHT22;31619;49.008;12.106;2022-12-11T16:22:34;-0.60;99.90
45906;DHT22;31619;49.008;12.106;2022-12-11T16:24:59;-0.50;99.90
45906;DHT22;31619;49.008;12.106;2022-12-11T16:27:25;-0.40;99.90
45906;DHT22;31619;49.008;12.106;2022-12-11T16:29:50;-0.50;99.90
45906;DHT22;31619;49.008;12.106;2022-12-11T16:32:16;-0.40;99.90
45906;DHT22;31619;49.008;12.106;2022-12-11T16:34:42;-0.30;99.90